Time;durP1;ratioP1;P1;durP2;ratioP2;P2;SDS_P1;SDS_P2;PMS_P1;PMS_P2;Temp;Humidity;BMP_temperature;BMP_pressure;BME280_temperature;BME280_humidity;BME280_pressure;Samples;Min_cycle;Max_cycle;Signal;HPM_P1;HPM_P2
2023/03/07 00:01:34;;;;;;;54.28;24.30;;;;;;;-0.97;100.00;99566.47;7400566;19;20089;-68
2023/03/07 00:04:03;;;;;;;64.45;25.92;;;;;;;-0.95;100.00;99567.31;7396925;19;20026;-68
2023/03/07 00:06:31;;;;;;;63.22;25.20;;;;;;;-0.94;100.00;99555.31;7400232;19;20081;-68
2023/03/07 00:09:02;;;;;;;62.35;25.45;;;;;;;-0.95;100.00;99551.84;7400126;19;20018;-68
2023/03/07 00:11:33;;;;;;;68.40;27.33;;;;;;;-0.93;100.00;99546.75;7399641;19;20101;-68
2023/03/07 00:14:01;;;;;;;64.82;26.02;;;;;;;-0.94;100.00;99553.59;7397971;19;20504;-68
2023/03/07 00:16:30;;;;;;;69.70;27.75;;;;;;;-0.92;100.00;99543.28;7399992;19;20074;-68
2023/03/07 00:18:59;;;;;;;69.85;26.13;;;;;;;-0.92;100.00;99546.75;7399543;19;20445;-68
2023/03/07 00:21:30;;;;;;;74.95;29.05;;;;;;;-0.92;100.00;99533.88;7397398;19;20015;-68
2023/03/07 00:23:59;;;;;;;66.82;27.73;;;;;;;-0.93;100.00;99534.72;7396793;19;20014;-68
2023/03/07 00:26:38;;;;;;;72.35;27.23;;;;;;;-0.89;100.00;99539.03;7396982;19;20502;-68
2023/03/07 00:29:11;;;;;;;70.82;27.92;;;;;;;-0.87;100.00;99528.75;7399930;19;20022;-68
2023/03/07 00:31:39;;;;;;;69.50;27.48;;;;;;;-0.86;100.00;99525.31;7397309;19;20078;-68
2023/03/07 00:34:08;;;;;;;74.22;30.00;;;;;;;-0.84;100.00;99523.59;7397380;19;20019;-68
2023/03/07 00:36:36;;;;;;;77.57;29.52;;;;;;;-0.82;100.00;99509.03;7399317;19;20070;-69
2023/03/07 00:39:05;;;;;;;75.97;30.42;;;;;;;-0.83;100.00;99505.59;7398760;19;20015;-69
2023/03/07 00:41:34;;;;;;;75.57;30.67;;;;;;;-0.77;100.00;99503.88;7399195;19;20045;-68
2023/03/07 00:44:02;;;;;;;80.10;31.40;;;;;;;-0.74;100.00;99501.34;7397197;19;20419;-68
2023/03/07 00:46:33;;;;;;;76.55;29.88;;;;;;;-0.73;100.00;99497.91;7396379;19;20525;-67
2023/03/07 00:49:02;;;;;;;82.65;30.80;;;;;;;-0.70;100.00;99492.75;7398317;19;20015;-68
2023/03/07 00:51:31;;;;;;;82.63;30.73;;;;;;;-0.68;100.00;99488.50;7397932;19;20082;-68
2023/03/07 00:53:59;;;;;;;89.88;31.30;;;;;;;-0.66;100.00;99473.88;7397085;19;20084;-68
2023/03/07 00:56:28;;;;;;;84.82;32.72;;;;;;;-0.64;100.00;99473.88;7398414;19;20018;-68
2023/03/07 00:58:56;;;;;;;83.80;32.28;;;;;;;-0.62;100.00;99467.91;7395964;19;20435;-68
2023/03/07 01:01:26;;;;;;;93.75;34.00;;;;;;;-0.60;100.00;99468.75;7398192;19;20082;-68
2023/03/07 01:03:57;;;;;;;92.85;36.42;;;;;;;-0.59;100.00;99456.75;7395728;19;20027;-68
2023/03/07 01:06:29;;;;;;;96.85;34.85;;;;;;;-0.58;100.00;99456.75;7397812;19;20429;-68
2023/03/07 01:08:59;;;;;;;96.38;33.63;;;;;;;-0.59;100.00;99447.28;7397866;19;20078;-68
2023/03/07 01:11:28;;;;;;;79.68;30.95;;;;;;;-0.57;100.00;99448.16;7398038;19;20081;-68
2023/03/07 01:13:57;;;;;;;91.15;33.80;;;;;;;-0.57;100.00;99442.13;7396611;19;20022;-68
2023/03/07 01:16:27;;;;;;;81.13;32.53;;;;;;;-0.56;100.00;99436.13;7395979;19;20026;-68
2023/03/07 01:19:00;;;;;;;80.35;32.22;;;;;;;-0.56;100.00;99429.25;7398183;19;20077;-68
2023/03/07 01:21:31;;;;;;;84.78;33.78;;;;;;;-0.56;100.00;99428.41;7396026;19;20090;-68
2023/03/07 01:24:00;;;;;;;77.32;32.40;;;;;;;-0.58;100.00;99419.78;7396515;19;20420;-67
2023/03/07 01:26:31;;;;;;;82.75;32.15;;;;;;;-0.59;100.00;99413.78;7395529;19;20094;-67
2023/03/07 01:29:02;;;;;;;73.95;31.05;;;;;;;-0.58;100.00;99417.22;7397767;19;20066;-67
2023/03/07 01:31:31;;;;;;;88.65;33.97;;;;;;;-0.60;100.00;99409.50;7397088;19;20019;-67
2023/03/07 01:34:02;;;;;;;76.35;32.92;;;;;;;-0.61;100.00;99409.50;7396058;19;20010;-67
2023/03/07 01:36:33;;;;;;;74.07;33.15;;;;;;;-0.62;100.00;99397.47;7397633;19;20070;-67
2023/03/07 01:39:05;;;;;;;72.13;30.08;;;;;;;-0.63;100.00;99399.19;7397520;19;20073;-67
2023/03/07 01:41:34;;;;;;;80.05;33.58;;;;;;;-0.62;100.00;99392.31;7397125;19;20011;-67
2023/03/07 01:44:04;;;;;;;73.32;31.40;;;;;;;-0.63;100.00;99383.75;7395697;19;20042;-67
2023/03/07 01:46:44;;;;;;;68.63;31.05;;;;;;;-0.64;100.00;99387.16;7396923;19;20018;-68
2023/03/07 01:49:20;;;;;;;70.82;32.38;;;;;;;-0.64;100.00;99374.28;7397111;19;20086;-68
2023/03/07 01:51:52;;;;;;;75.00;32.58;;;;;;;-0.69;100.00;99365.69;7396694;19;20090;-68
2023/03/07 01:54:24;;;;;;;76.93;30.52;;;;;;;-0.67;100.00;99362.25;7394867;19;20493;-67
2023/03/07 01:56:53;;;;;;;81.68;32.75;;;;;;;-0.64;100.00;99358.84;7396978;19;20035;-68
2023/03/07 01:59:29;;;;;;;74.65;31.13;;;;;;;-0.64;100.00;99345.94;7395896;19;20374;-68
2023/03/07 02:02:01;;;;;;;70.22;30.02;;;;;;;-0.63;100.00;99347.69;7394409;19;20010;-68
2023/03/07 02:04:39;;;;;;;71.93;30.80;;;;;;;-0.63;100.00;99339.94;7394962;19;20089;-68
2023/03/07 02:07:08;;;;;;;71.78;29.08;;;;;;;-0.62;100.00;99331.38;7395847;19;20489;-68
2023/03/07 02:09:38;;;;;;;74.47;29.17;;;;;;;-0.62;100.00;99326.22;7396258;19;20022;-68
2023/03/07 02:12:08;;;;;;;66.28;29.08;;;;;;;-0.59;100.00;99320.22;7395106;19;20078;-68
2023/03/07 02:14:36;;;;;;;69.35;29.95;;;;;;;-0.59;100.00;99317.63;7394639;19;20539;-66
2023/03/07 02:17:05;;;;;;;72.28;31.20;;;;;;;-0.60;100.00;99309.03;7396003;19;20093;-67
2023/03/07 02:19:53;;;;;;;72.85;30.45;;;;;;;-0.56;100.00;99300.44;7395959;19;20029;-67
2023/03/07 02:22:22;;;;;;;71.47;29.73;;;;;;;-0.54;100.00;99300.47;7396228;19;20037;-66
2023/03/07 02:24:54;;;;;;;70.57;29.90;;;;;;;-0.52;100.00;99294.44;7393846;19;20018;-67
2023/03/07 02:27:35;;;;;;;70.75;29.55;;;;;;;-0.51;100.00;99293.56;7393066;19;20078;-66
2023/03/07 02:30:03;;;;;;;76.47;32.53;;;;;;;-0.48;100.00;99285.00;7393771;19;20078;-66
2023/03/07 02:32:32;;;;;;;62.10;29.20;;;;;;;-0.46;100.00;99282.41;7394497;19;20022;-67
2023/03/07 02:35:00;;;;;;;66.15;27.65;;;;;;;-0.46;100.00;99272.97;7395412;19;20082;-67
2023/03/07 02:37:34;;;;;;;59.83;27.02;;;;;;;-0.45;100.00;99263.53;7395053;19;20478;-67
2023/03/07 02:40:07;;;;;;;58.08;26.40;;;;;;;-0.44;100.00;99266.09;7395768;19;20094;-66
2023/03/07 02:42:42;;;;;;;62.60;27.88;;;;;;;-0.45;100.00;99250.63;7395296;19;20044;-66
2023/03/07 02:45:14;;;;;;;60.38;27.08;;;;;;;-0.45;100.00;99251.50;7395639;19;20086;-66
2023/03/07 02:47:43;;;;;;;54.70;26.17;;;;;;;-0.44;100.00;99247.19;7394775;19;20497;-67
2023/03/07 02:50:13;;;;;;;58.35;26.63;;;;;;;-0.44;100.00;99242.03;7395017;19;20018;-67
2023/03/07 02:52:42;;;;;;;51.85;23.58;;;;;;;-0.44;100.00;99236.88;7394320;19;20040;-67
2023/03/07 02:55:11;;;;;;;59.00;25.85;;;;;;;-0.44;100.00;99232.59;7393067;19;20018;-66
2023/03/07 02:57:42;;;;;;;58.80;27.05;;;;;;;-0.44;100.00;99224.88;7394578;19;20444;-66
2023/03/07 03:00:13;;;;;;;55.63;25.65;;;;;;;-0.43;100.00;99217.97;7394428;19;20077;-66
2023/03/07 03:02:42;;;;;;;55.60;26.92;;;;;;;-0.44;100.00;99209.41;7394906;19;20018;-67
2023/03/07 03:05:10;;;;;;;56.53;24.67;;;;;;;-0.44;100.00;99204.25;7394318;19;20085;-67
2023/03/07 03:07:39;;;;;;;48.58;24.35;;;;;;;-0.44;100.00;99196.53;7394858;19;20023;-67
2023/03/07 03:10:09;;;;;;;52.15;25.30;;;;;;;-0.43;100.00;99184.47;7396033;19;20022;-67
2023/03/07 03:12:38;;;;;;;52.05;24.17;;;;;;;-0.43;100.00;99187.94;7393111;19;20509;-67
2023/03/07 03:15:10;;;;;;;47.05;23.75;;;;;;;-0.42;100.00;99175.91;7394899;19;20026;-67
2023/03/07 03:17:39;;;;;;;45.95;22.55;;;;;;;-0.41;100.00;99175.03;7394414;19;20074;-67
2023/03/07 03:20:11;;;;;;;52.42;23.77;;;;;;;-0.40;100.00;99172.44;7394294;19;20019;-67
2023/03/07 03:22:40;;;;;;;50.25;22.88;;;;;;;-0.40;100.00;99164.72;7392193;19;20366;-67
2023/03/07 03:25:10;;;;;;;51.10;24.40;;;;;;;-0.39;100.00;99161.28;7392102;19;20031;-66
2023/03/07 03:27:40;;;;;;;53.70;24.80;;;;;;;-0.38;100.00;99146.69;7392592;19;20077;-67
2023/03/07 03:30:14;;;;;;;56.00;24.02;;;;;;;-0.37;100.00;99150.97;7393934;19;20040;-67
2023/03/07 03:32:43;;;;;;;47.35;23.60;;;;;;;-0.36;100.00;99143.22;7393216;19;20082;-67
2023/03/07 03:35:13;;;;;;;49.20;23.10;;;;;;;-0.34;100.00;99144.09;7393682;19;20078;-67
2023/03/07 03:37:41;;;;;;;49.40;23.88;;;;;;;-0.31;100.00;99134.66;7394200;19;20025;-67
2023/03/07 03:40:16;;;;;;;46.92;23.75;;;;;;;-0.30;100.00;99137.22;7398374;19;20095;-67
2023/03/07 03:42:45;;;;;;;45.58;25.27;;;;;;;-0.28;100.00;99129.47;7398730;19;20011;-68
2023/03/07 03:45:16;;;;;;;48.45;24.33;;;;;;;-0.26;100.00;99122.59;7397888;19;20503;-67
2023/03/07 03:47:47;;;;;;;49.38;24.33;;;;;;;-0.25;100.00;99125.16;7400465;19;20488;-67
2023/03/07 03:50:15;;;;;;;47.30;25.10;;;;;;;-0.23;100.00;99120.88;7400481;19;20006;-67
2023/03/07 03:52:44;;;;;;;47.03;23.33;;;;;;;-0.20;100.00;99113.13;7397764;19;20018;-68
2023/03/07 03:55:13;;;;;;;49.92;26.58;;;;;;;-0.19;100.00;99109.69;7400069;19;20437;-67
2023/03/07 03:57:41;;;;;;;46.78;25.08;;;;;;;-0.17;100.00;99104.50;7397987;19;20035;-66
2023/03/07 04:00:13;;;;;;;49.95;25.25;;;;;;;-0.14;100.00;99096.75;7400442;19;20430;-66
2023/03/07 04:02:44;;;;;;;43.53;23.88;;;;;;;-0.10;100.00;99102.75;7400134;19;20029;-67
2023/03/07 04:05:13;;;;;;;46.65;24.23;;;;;;;-0.09;100.00;99094.16;7400636;19;20077;-67
2023/03/07 04:07:42;;;;;;;42.80;23.98;;;;;;;-0.07;100.00;99090.69;7400022;19;20086;-67
2023/03/07 04:10:11;;;;;;;42.20;22.25;;;;;;;-0.02;100.00;99095.84;7399578;19;20078;-67
2023/03/07 04:12:40;;;;;;;43.88;23.90;;;;;;;0.02;100.00;99088.97;7398638;19;20042;-67
2023/03/07 04:15:11;;;;;;;42.92;25.67;;;;;;;0.04;100.00;99089.78;7397505;19;20086;-67
2023/03/07 04:17:39;;;;;;;42.88;22.98;;;;;;;0.07;100.00;99084.63;7400233;19;20035;-67
2023/03/07 04:20:16;;;;;;;42.78;23.98;;;;;;;0.09;100.00;99083.75;7399717;19;20081;-67
2023/03/07 04:22:44;;;;;;;41.03;23.23;;;;;;;0.12;100.00;99083.72;7397637;19;20109;-66
2023/03/07 04:25:13;;;;;;;42.03;22.67;;;;;;;0.15;100.00;99077.69;7399581;19;20039;-66
2023/03/07 04:27:48;;;;;;;39.63;23.48;;;;;;;0.15;100.00;99073.41;7396138;19;20420;-66
2023/03/07 04:30:16;;;;;;;44.20;24.83;;;;;;;0.18;100.00;99079.38;7399834;19;20180;-66
2023/03/07 04:32:45;;;;;;;41.08;22.98;;;;;;;0.19;100.00;99073.38;7398063;19;20513;-67
2023/03/07 04:35:16;;;;;;;41.28;24.33;;;;;;;0.19;100.00;99070.78;7399852;19;20078;-67
2023/03/07 04:37:44;;;;;;;46.63;24.40;;;;;;;0.16;100.00;99066.50;7398753;19;20074;-67
2023/03/07 04:40:14;;;;;;;42.55;24.15;;;;;;;0.14;100.00;99063.94;7398369;19;20082;-66
2023/03/07 04:42:43;;;;;;;48.17;25.30;;;;;;;0.11;100.00;99066.53;7398448;19;20078;-66
2023/03/07 04:45:12;;;;;;;46.05;24.85;;;;;;;0.08;100.00;99056.25;7398615;19;20089;-66
2023/03/07 04:47:41;;;;;;;51.72;25.42;;;;;;;0.06;100.00;99057.13;7398210;19;20070;-65
2023/03/07 04:50:10;;;;;;;54.03;27.73;;;;;;;0.02;100.00;99051.13;7397863;19;20090;-68
2023/03/07 04:52:41;;;;;;;47.28;25.42;;;;;;;-0.02;100.00;99044.28;7398170;19;20018;-68
2023/03/07 04:55:11;;;;;;;56.22;26.60;;;;;;;-0.04;100.00;99039.13;7398897;19;20090;-67
2023/03/07 04:57:40;;;;;;;52.45;25.55;;;;;;;-0.04;100.00;99038.25;7398513;19;20085;-67
2023/03/07 05:00:10;;;;;;;50.40;27.13;;;;;;;-0.06;100.00;99032.28;7398482;19;20037;-67
2023/03/07 05:02:39;;;;;;;52.70;25.95;;;;;;;-0.07;100.00;99025.41;7397799;19;20521;-67
2023/03/07 05:05:08;;;;;;;55.88;27.05;;;;;;;-0.08;100.00;99028.84;7397999;19;20090;-67
2023/03/07 05:07:37;;;;;;;53.20;26.45;;;;;;;-0.11;100.00;99016.00;7397471;19;20074;-67
2023/03/07 05:10:09;;;;;;;53.20;27.60;;;;;;;-0.13;100.00;99021.13;7397555;19;20576;-67
2023/03/07 05:12:38;;;;;;;57.63;27.27;;;;;;;-0.17;100.00;99015.13;7397992;19;20078;-67
2023/03/07 05:15:08;;;;;;;56.67;27.42;;;;;;;-0.17;100.00;99011.72;7395819;19;20418;-67
2023/03/07 05:17:36;;;;;;;52.60;27.95;;;;;;;-0.18;100.00;99005.72;7400575;19;20015;-68
2023/03/07 05:20:06;;;;;;;54.97;26.13;;;;;;;-0.18;100.00;99004.84;7395672;19;20022;-68
2023/03/07 05:22:38;;;;;;;59.22;29.08;;;;;;;-0.19;100.00;99008.28;7397300;19;20015;-67
2023/03/07 05:25:10;;;;;;;66.88;30.02;;;;;;;-0.22;100.00;99003.16;7397592;19;20086;-68
2023/03/07 05:27:38;;;;;;;53.55;25.08;;;;;;;-0.23;100.00;99002.31;7395780;19;20014;-68
2023/03/07 05:30:08;;;;;;;60.72;29.20;;;;;;;-0.27;100.00;98999.75;7396853;19;20023;-67
2023/03/07 05:32:36;;;;;;;60.63;30.00;;;;;;;-0.27;100.00;99003.16;7396286;19;20087;-69
2023/03/07 05:35:05;;;;;;;63.47;29.15;;;;;;;-0.30;100.00;98999.75;7397068;19;20035;-68
2023/03/07 05:37:34;;;;;;;63.40;28.65;;;;;;;-0.31;100.00;99006.63;7396739;19;20086;-68
2023/03/07 05:40:04;;;;;;;62.45;27.40;;;;;;;-0.32;100.00;99002.34;7394795;19;20078;-69
2023/03/07 05:42:35;;;;;;;68.40;30.63;;;;;;;-0.34;100.00;98996.34;7396253;19;20070;-70
2023/03/07 05:45:04;;;;;;;67.63;29.52;;;;;;;-0.36;100.00;99004.06;7396855;19;20102;-69
2023/03/07 05:47:33;;;;;;;64.22;29.20;;;;;;;-0.36;100.00;99008.38;7396301;19;20074;-69
2023/03/07 05:50:01;;;;;;;65.13;28.33;;;;;;;-0.37;100.00;99006.66;7396413;19;20419;-69
2023/03/07 05:52:30;;;;;;;64.18;28.40;;;;;;;-0.38;100.00;98992.06;7395935;19;20051;-70
2023/03/07 05:54:58;;;;;;;63.72;30.13;;;;;;;-0.39;100.00;98996.38;7394876;19;20014;-69
2023/03/07 05:57:27;;;;;;;68.90;30.98;;;;;;;-0.36;100.00;98988.59;7396191;19;20019;-69
2023/03/07 05:59:58;;;;;;;67.82;30.15;;;;;;;-0.36;100.00;98987.75;7393881;19;20081;-70
2023/03/07 06:02:26;;;;;;;65.28;30.20;;;;;;;-0.35;100.00;98987.75;7394870;19;20027;-69
2023/03/07 06:04:55;;;;;;;68.57;31.17;;;;;;;-0.35;100.00;98984.34;7393346;19;20514;-69
2023/03/07 06:07:24;;;;;;;71.80;29.60;;;;;;;-0.32;100.00;98983.47;7395315;19;20098;-70
2023/03/07 06:09:52;;;;;;;70.05;31.30;;;;;;;-0.31;100.00;98980.03;7395295;19;20073;-69
2023/03/07 06:12:21;;;;;;;72.53;31.30;;;;;;;-0.29;100.00;98979.13;7395847;19;20026;-69
2023/03/07 06:14:49;;;;;;;69.72;29.80;;;;;;;-0.28;100.00;98993.72;7393744;19;20015;-68
2023/03/07 06:17:20;;;;;;;63.70;30.08;;;;;;;-0.29;100.00;98975.69;7392947;19;20027;-69
2023/03/07 06:19:49;;;;;;;63.92;30.48;;;;;;;-0.26;100.00;98989.41;7394492;19;20375;-69
2023/03/07 06:22:39;;;;;;;60.63;29.60;;;;;;;-0.25;100.00;98985.97;7394846;19;20011;-68
2023/03/07 06:25:09;;;;;;;66.43;30.25;;;;;;;-0.22;100.00;98996.25;7395445;19;20026;-68
2023/03/07 06:27:51;;;;;;;61.58;28.67;;;;;;;-0.21;100.00;98989.41;7393332;19;20015;-68
2023/03/07 06:30:20;;;;;;;59.45;26.05;;;;;;;-0.21;100.00;98986.81;7393903;19;20098;-69
2023/03/07 06:32:51;;;;;;;62.47;29.08;;;;;;;-0.18;100.00;98979.94;7395409;19;20507;-69
2023/03/07 06:35:20;;;;;;;59.78;29.20;;;;;;;-0.16;100.00;98979.91;7395344;19;20019;-68
2023/03/07 06:37:48;;;;;;;62.13;26.75;;;;;;;-0.10;100.00;98981.59;7393271;19;20035;-67
2023/03/07 06:40:17;;;;;;;62.30;29.40;;;;;;;-0.06;100.00;98981.56;7394652;19;20082;-68
2023/03/07 06:42:46;;;;;;;53.67;26.73;;;;;;;-0.02;100.00;98982.41;7394775;19;20015;-69
2023/03/07 06:45:14;;;;;;;54.28;25.63;;;;;;;-0.01;100.00;98979.81;7394443;19;20023;-69
2023/03/07 06:47:43;;;;;;;53.42;25.70;;;;;;;-0.01;100.00;98981.53;7395964;19;20417;-69
2023/03/07 06:50:14;;;;;;;50.85;24.77;;;;;;;0.01;100.00;98979.78;7394934;19;20083;-68
2023/03/07 06:52:43;;;;;;;52.03;23.73;;;;;;;0.02;100.00;98970.34;7394903;19;20078;-69
2023/03/07 06:55:12;;;;;;;50.40;24.60;;;;;;;0.04;100.00;98978.91;7392816;19;20074;-68
2023/03/07 06:57:41;;;;;;;51.45;23.77;;;;;;;0.05;100.00;98973.75;7394765;19;20018;-69
2023/03/07 07:00:11;;;;;;;46.83;24.08;;;;;;;0.07;100.00;98974.59;7392425;19;20391;-68
2023/03/07 07:02:40;;;;;;;40.92;22.92;;;;;;;0.10;100.00;98984.03;7394428;19;20019;-69
2023/03/07 07:05:09;;;;;;;48.30;22.90;;;;;;;0.14;100.00;98983.16;7394365;19;20082;-69
2023/03/07 07:07:40;;;;;;;47.05;22.23;;;;;;;0.17;100.00;98982.28;7394107;19;20082;-69
2023/03/07 07:10:09;;;;;;;42.03;21.20;;;;;;;0.19;100.00;98967.63;7394570;19;20031;-69
2023/03/07 07:12:37;;;;;;;41.22;21.50;;;;;;;0.23;100.00;98970.19;7394759;19;20477;-68
2023/03/07 07:15:07;;;;;;;45.97;23.70;;;;;;;0.28;100.00;98967.56;7398647;19;20077;-69
2023/03/07 07:17:37;;;;;;;39.90;20.77;;;;;;;0.34;100.00;98972.66;7401593;19;20010;-68
2023/03/07 07:20:10;;;;;;;40.13;20.63;;;;;;;0.38;100.00;98973.47;7401920;19;20078;-69
2023/03/07 07:22:41;;;;;;;37.70;19.88;;;;;;;0.42;100.00;98968.28;7401296;19;20019;-69
2023/03/07 07:25:10;;;;;;;38.05;19.80;;;;;;;0.48;100.00;98962.19;7401514;19;20014;-69
2023/03/07 07:27:39;;;;;;;38.83;20.67;;;;;;;0.54;100.00;98958.72;7399336;19;20081;-68
2023/03/07 07:30:09;;;;;;;37.22;20.35;;;;;;;0.56;100.00;98960.41;7400798;19;20036;-68
2023/03/07 07:32:37;;;;;;;39.67;22.15;;;;;;;0.63;100.00;98971.53;7401037;19;20022;-68
2023/03/07 07:35:07;;;;;;;34.10;19.98;;;;;;;0.64;100.00;98958.63;7398911;19;20079;-69
2023/03/07 07:37:35;;;;;;;32.83;18.25;;;;;;;0.72;100.00;98970.59;7400700;19;20025;-69
2023/03/07 07:40:07;;;;;;;30.58;17.60;;;;;;;0.71;100.00;98953.38;7397103;19;20018;-69
2023/03/07 07:42:36;;;;;;;36.67;19.55;;;;;;;0.81;100.00;98961.03;7399937;19;20481;-69
2023/03/07 07:45:05;;;;;;;31.73;18.30;;;;;;;0.88;100.00;98966.13;7400462;19;20082;-68
2023/03/07 07:47:33;;;;;;;27.52;16.80;;;;;;;0.95;100.00;98967.78;7400270;19;20388;-68
2023/03/07 07:50:02;;;;;;;29.20;16.73;;;;;;;1.00;100.00;98970.28;7397997;19;20081;-68
2023/03/07 07:52:30;;;;;;;26.40;16.27;;;;;;;1.05;100.00;98953.00;7400407;19;20419;-70
2023/03/07 07:54:59;;;;;;;28.90;15.77;;;;;;;1.11;100.00;98958.09;7397606;19;20085;-69
2023/03/07 07:57:30;;;;;;;27.08;15.75;;;;;;;1.15;100.00;98959.81;7400460;19;20553;-69
2023/03/07 07:59:58;;;;;;;29.30;14.98;;;;;;;1.23;100.00;98957.13;7400538;19;20434;-69
2023/03/07 08:02:27;;;;;;;27.15;15.95;;;;;;;1.28;100.00;98951.00;7400366;19;20070;-68
2023/03/07 08:04:56;;;;;;;23.92;14.70;;;;;;;1.36;100.00;98950.06;7397863;19;20023;-69
2023/03/07 08:07:24;;;;;;;24.65;15.32;;;;;;;1.43;100.00;98959.44;7399705;19;20070;-69
2023/03/07 08:09:53;;;;;;;23.55;14.02;;;;;;;1.49;100.00;98950.75;7399533;19;20081;-68
2023/03/07 08:12:21;;;;;;;23.08;14.52;;;;;;;1.54;100.00;98947.25;7397412;19;20035;-69
2023/03/07 08:14:52;;;;;;;24.38;14.63;;;;;;;1.62;100.00;98944.53;7396787;19;20418;-69
2023/03/07 08:17:21;;;;;;;21.88;13.82;;;;;;;1.70;100.00;98941.84;7399137;19;20510;-69
2023/03/07 08:19:49;;;;;;;22.30;14.30;;;;;;;1.75;99.43;98940.88;7399559;19;20074;-69
2023/03/07 08:22:18;;;;;;;21.75;13.05;;;;;;;1.77;99.32;98944.31;7399405;19;20432;-69
2023/03/07 08:24:49;;;;;;;21.42;13.18;;;;;;;1.86;99.89;98939.88;7394997;19;20488;-69
2023/03/07 08:27:18;;;;;;;20.05;12.80;;;;;;;1.92;99.32;98942.34;7398834;19;20044;-69
2023/03/07 08:29:52;;;;;;;22.10;13.30;;;;;;;1.95;98.38;98945.75;7398966;19;20018;-69
2023/03/07 08:32:20;;;;;;;20.90;12.55;;;;;;;2.01;97.84;98937.06;7399640;19;20070;-69
2023/03/07 08:34:49;;;;;;;20.00;12.57;;;;;;;2.07;98.24;98928.34;7396973;19;20440;-69
2023/03/07 08:37:17;;;;;;;20.40;12.27;;;;;;;2.12;98.86;98934.28;7398907;19;20074;-69
2023/03/07 08:39:46;;;;;;;20.42;12.73;;;;;;;2.19;98.28;98925.56;7398992;19;20026;-68
2023/03/07 08:42:14;;;;;;;17.25;11.32;;;;;;;2.25;97.65;98924.56;7398344;19;20015;-68
2023/03/07 08:44:43;;;;;;;17.55;11.30;;;;;;;2.32;97.56;98925.34;7395880;19;20074;-67
2023/03/07 08:47:14;;;;;;;17.08;11.85;;;;;;;2.37;96.69;98916.59;7398332;19;20070;-68
2023/03/07 08:49:42;;;;;;;17.15;11.82;;;;;;;2.44;96.35;98930.31;7398040;19;20054;-68
2023/03/07 08:52:11;;;;;;;15.90;10.80;;;;;;;2.48;95.67;98931.97;7398294;19;20481;-68
2023/03/07 08:54:40;;;;;;;17.40;11.20;;;;;;;2.52;96.40;98928.44;7396178;19;20036;-67
2023/03/07 08:57:08;;;;;;;14.40;9.05;;;;;;;2.57;95.00;98933.53;7398350;19;20073;-67
2023/03/07 08:59:36;;;;;;;15.88;10.27;;;;;;;2.61;94.79;98933.44;7397828;19;20485;-68
2023/03/07 09:02:05;;;;;;;15.82;11.13;;;;;;;2.68;94.58;98934.19;7398018;19;20074;-68
2023/03/07 09:04:36;;;;;;;15.50;10.60;;;;;;;2.70;94.68;98931.56;7395904;19;20018;-67
2023/03/07 09:07:05;;;;;;;14.63;9.82;;;;;;;2.78;94.71;98934.88;7397379;19;20078;-68
2023/03/07 09:09:33;;;;;;;13.45;9.90;;;;;;;2.83;93.74;98919.22;7395574;19;20015;-67
2023/03/07 09:12:02;;;;;;;14.38;9.80;;;;;;;2.86;93.55;98927.81;7395186;19;20039;-67
2023/03/07 09:14:30;;;;;;;14.10;9.82;;;;;;;2.88;93.17;98923.44;7395826;19;20086;-68
2023/03/07 09:16:59;;;;;;;13.43;8.57;;;;;;;2.91;92.45;98927.72;7397270;19;20018;-67
2023/03/07 09:19:27;;;;;;;14.00;9.63;;;;;;;2.92;92.03;98926.84;7395634;19;20074;-67
2023/03/07 09:21:58;;;;;;;12.73;8.95;;;;;;;2.95;93.13;98926.75;7394973;19;20066;-67
2023/03/07 09:24:27;;;;;;;13.88;9.35;;;;;;;2.96;92.48;98930.19;7395320;19;20071;-68
2023/03/07 09:26:55;;;;;;;12.30;9.30;;;;;;;2.98;91.23;98926.69;7394530;19;20501;-68
2023/03/07 09:29:24;;;;;;;12.80;8.73;;;;;;;3.01;92.27;98920.59;7396834;19;20035;-65
2023/03/07 09:31:52;;;;;;;13.60;9.40;;;;;;;3.08;94.79;98917.88;7395189;19;20015;-65
2023/03/07 09:34:21;;;;;;;13.05;9.07;;;;;;;3.20;93.12;98926.28;7394580;19;20015;-65
2023/03/07 09:36:52;;;;;;;11.98;8.75;;;;;;;3.23;92.79;98916.69;7394122;19;20565;-67
2023/03/07 09:39:23;;;;;;;12.52;8.95;;;;;;;3.24;93.06;98928.75;7396389;19;20015;-67
2023/03/07 09:42:03;;;;;;;13.70;9.45;;;;;;;3.21;91.35;98917.59;7394708;19;20070;-66
2023/03/07 09:44:48;;;;;;;11.82;8.38;;;;;;;3.20;91.33;98916.75;7395396;19;20090;-67
2023/03/07 09:47:36;;;;;;;14.20;9.23;;;;;;;3.18;89.78;98915.91;7397662;19;20035;-68
2023/03/07 09:50:13;;;;;;;12.38;8.55;;;;;;;3.18;89.85;98915.91;7396317;19;20018;-67
2023/03/07 09:52:43;;;;;;;13.13;8.55;;;;;;;3.20;92.15;98921.94;7396654;19;20035;-69
2023/03/07 09:55:17;;;;;;;12.90;8.93;;;;;;;3.21;90.77;98928.84;7395518;19;20022;-68
2023/03/07 09:57:50;;;;;;;10.60;7.85;;;;;;;3.23;90.35;98921.03;7396144;19;20077;-67
2023/03/07 10:00:24;;;;;;;11.80;7.88;;;;;;;3.28;90.38;98926.97;7395746;19;20392;-67
2023/03/07 10:02:57;;;;;;;9.55;7.75;;;;;;;3.32;89.93;98913.03;7396338;19;20036;-68
2023/03/07 10:05:33;;;;;;;11.47;8.53;;;;;;;3.36;89.70;98908.66;7394881;19;20026;-68
2023/03/07 10:08:04;;;;;;;10.70;8.23;;;;;;;3.40;90.37;98903.38;7395641;19;20821;-69
2023/03/07 10:10:41;;;;;;;11.50;7.65;;;;;;;3.43;87.33;98905.03;7396429;19;20014;-68
2023/03/07 10:13:24;;;;;;;11.63;8.13;;;;;;;3.47;89.62;98898.06;7395006;19;20086;-67
2023/03/07 10:15:55;;;;;;;11.50;8.35;;;;;;;3.50;89.39;98905.75;7393301;19;20276;-67
2023/03/07 10:18:35;;;;;;;10.25;7.38;;;;;;;3.54;89.57;98905.66;7395048;19;20035;-67
2023/03/07 10:21:14;;;;;;;11.38;8.35;;;;;;;3.55;89.28;98903.91;7395718;19;20022;-69
2023/03/07 10:24:06;;;;;;;12.23;7.35;;;;;;;3.61;91.54;98900.34;7394284;19;20083;-69
2023/03/07 10:26:43;;;;;;;10.23;7.55;;;;;;;3.65;91.93;98904.56;7395512;19;20014;-68
2023/03/07 10:29:21;;;;;;;10.70;8.15;;;;;;;3.63;88.97;98902.00;7393682;19;20086;-69
2023/03/07 10:31:53;;;;;;;11.93;8.55;;;;;;;3.68;89.82;98907.09;7392997;19;20484;-69
2023/03/07 10:34:26;;;;;;;10.63;8.43;;;;;;;3.70;91.94;98892.31;7392838;19;20489;-68
2023/03/07 10:36:59;;;;;;;10.98;7.93;;;;;;;3.73;92.25;98892.28;7395520;19;20078;-67
2023/03/07 10:39:34;;;;;;;10.75;7.80;;;;;;;3.77;92.08;98890.44;7395060;19;20070;-68
2023/03/07 10:42:06;;;;;;;11.90;8.30;;;;;;;3.79;92.59;98893.84;7395339;19;20022;-68
2023/03/07 10:44:35;;;;;;;10.18;8.10;;;;;;;3.80;90.32;98891.22;7393152;19;20078;-67
2023/03/07 10:47:04;;;;;;;10.50;7.80;;;;;;;3.82;92.02;98883.41;7400417;19;20042;-66
2023/03/07 10:49:38;;;;;;;9.98;7.60;;;;;;;3.84;92.49;98881.63;7402521;19;20544;-68
2023/03/07 10:52:14;;;;;;;10.05;8.07;;;;;;;3.83;90.93;98882.50;7403263;19;20040;-66
2023/03/07 10:54:43;;;;;;;11.60;8.38;;;;;;;3.85;93.34;98868.59;7398892;19;20485;-67
2023/03/07 10:57:15;;;;;;;10.40;8.25;;;;;;;3.85;91.20;98873.78;7402169;19;20074;-67
2023/03/07 10:59:46;;;;;;;11.57;8.55;;;;;;;3.86;93.00;98869.47;7402191;19;20023;-68
2023/03/07 11:02:32;;;;;;;10.90;8.10;;;;;;;3.85;91.33;98854.81;7401864;19;20019;-67
2023/03/07 11:05:01;;;;;;;12.05;8.70;;;;;;;3.86;93.54;98859.09;7402312;19;20081;-68
2023/03/07 11:07:32;;;;;;;10.73;8.30;;;;;;;3.87;92.96;98855.63;7402321;19;20011;-68
2023/03/07 11:10:03;;;;;;;12.65;9.05;;;;;;;3.89;92.98;98859.00;7401400;19;20082;-68
2023/03/07 11:12:46;;;;;;;11.55;8.85;;;;;;;3.86;92.04;98851.31;7402026;19;20074;-69
2023/03/07 11:15:23;;;;;;;12.32;9.00;;;;;;;3.85;94.03;98845.25;7401746;19;20036;-68
2023/03/07 11:17:52;;;;;;;11.90;8.98;;;;;;;3.85;95.38;98847.84;7398035;19;20481;-70
2023/03/07 11:20:23;;;;;;;12.73;9.63;;;;;;;3.84;95.21;98837.53;7401506;19;20018;-69
2023/03/07 11:22:52;;;;;;;13.90;9.95;;;;;;;3.82;94.65;98842.75;7398187;19;20475;-68
2023/03/07 11:25:24;;;;;;;13.80;10.35;;;;;;;3.77;93.51;98844.63;7398431;19;20074;-69
2023/03/07 11:27:57;;;;;;;12.57;9.40;;;;;;;3.73;94.51;98832.63;7399702;19;20029;-68
2023/03/07 11:30:29;;;;;;;14.20;10.40;;;;;;;3.74;95.81;98834.28;7399748;19;20078;-71
2023/03/07 11:33:12;;;;;;;13.18;9.52;;;;;;;3.70;95.77;98828.34;7400982;19;20039;-71